Aviation Digital Data Service (ADDS)

Output produced by METARs form (2053 UTC 29 May 2017)
found at http://www.aviationweather.gov/adds/metars/
 
SPHY 291700Z 2918/3018 36010KT 8000 SCT013 BKN070 TX16/2919Z TNM03/3011Z 
     TEMPO 2918/2920 SCT015 BKN060 
     BECMG 2923/3002 00000KT SCT012 BKN090
       
TAF SPQU 291700Z 2918/3018 25008KT 9999 SCT110 TX20/2819Z TN09/3021Z 
     FM300000 02004KT CAVOK 
     FM301400 23006KT CAVOK
       
SPHO 291700Z 2918/3018 28006KT 9999 FEW025 BKN100 TX23/2919Z TN09/3011Z 
     TEMPO 2920/3000 SCT035TCU BKN080 
     BECMG 3000/3002 00000KT FEW040
       
SPJR 291700Z 2918/3018 16009KT 9999 SCT030 TX19/2919Z TN07/3011Z 
     FM300000 00000KT 9999 CAVOK
       
SPHI 291700Z 2918/3018 18016KT CAVOK TX26/2920Z TN19/3011Z 
     FM300200 18010KT 9999 SCT030 SCT100 
     TEMPO 3008/3012 18005KT BKN025
       
TAF SPZO 291700Z 2918/3018 09008KT 9999 SCT043 BKN100 TX20/2920Z TN06/3011Z 
     TEMPO 2920/2923 29010KT FEW040TCU SCT046 BKN080 
     FM292300 10003KT 9999 FEW043 SCT080
       
SPLO 291700Z 2918/3018 13010KT 9999 OVC025 TX21/2919Z TN17/3011Z 
     TEMPO 2921/2923 SCT030
       
TAF SPQT 291700Z 2918/3018 15004KT 9999 BKN020 TX33/2919Z TN23/3011Z 
     TEMPO 2921/3003 09012KT 4000 SHRA BKN015 FEW025TCU BKN100 
     TEMPO 3009/3012 22004KT 8000 BKN005 SCT100
       
SPJI 291700Z 2918/3018 00000KT 9999 SCT040 TX34/2920Z TN16/3011Z 
     TEMPO 3002/3007 03008KT 7000 -RADZ OVC020 
     TEMPO 3010/3014 BKN030
       
SPJL 291700Z 2918/3018 35005KT 9999 SCT010 SCT080 TX17/2919Z TNM05/3010Z 
     TEMPO 2920/2923 05010KT 
     TEMPO 3000/3002 30006KT 
     TEMPO 3012/3015 28003KT
       
SPSO 291700Z 2918/3018 25010KT 7000 OVC020 TX21/2920Z TN18/3011Z 
     BECMG 3000/3002 23007KT 6000 OVC017 
     TEMPO 3010/3013 5000 BR OVC014
       
SPCL 291700Z 2918/3018 35005KT 9999 SCT020 BKN080 TX31/2920Z TN23/3011Z 
     TEMPO 1918/1920 BKN017 SCT080 
     FM300100 VRB02KT 9999 SCT020 
     BECMG 3006/3008 BKN015
       
SPTU 291700Z 2918/3018 34008KT 9999 OVC020 TX27/2921Z TN23/3011Z 
     TEMPO 2918/2921 BKN010 
     BECMG 2923/3001 00000KT 9999 SCT010
       
SPTN 291700Z 2918/3018 23008KT 9999 OVC030 TX20/2920Z TN13/3010Z 
     BECMG 2923/3001 24005KT 8000 SCT010 OVC015 
     FM300400 VRB02KT 5000 BR SCT005 OVC010 
     BECMG 3012/3014 7000 OVC017
       
SPYL 291700Z 2918/3018 19013KT CAVOK TX30/2919Z TN19/3011Z 
     FM300100 20015KT CAVOK
       
SPST 291700Z 2918/3018 12005KT 9999 SCT020 SCT100 TX30/2919Z TN23/3011Z 
     BECMG 3000/3002 00000KT FEW025 SCT080 
     TEMPO 3011/3013 3000 BR SCT012 BKN080
       
SPGM 291700Z 2918/3018 VRB02KT 9999 SCT040 TX30/2919Z TN22/3011Z 
     TEMPO 3011/3012 00000KT 4000 BR SCT015 BKN080
       
SPRU 291700Z 2918/3018 16010KT CAVOK TX25/2820Z TN18/3011Z 
     FM300000 15005KT 7000 SCT030 BKN150 
     FM300600 14005KT 5000 BR FEW008 BKN022 
     TEMPO 3010/3012 3000 BR SCT005 OVC017 
     FM301500 15006KT 8000 OVC025
       
TAF SPME 291700Z 2918/3018 34006KT 9999 FEW013 SCT023 TX30/2919Z TN24/3011Z 
     FM300000 00000KT 9999 BKN014
       
SPMS 291700Z 2918/3018 06005KT 9999 SCT020 TX34/2920Z TN23/3011Z 
     TEMPO 2921/3003 06012KT 5000 SHRA BKN015 FEW025TCU 
     TEMPO 3009/3013 00000KT 2000 BR BKN005 SCT100